• Join FlightAware (Why Join?)
  • Login
  • US Flag 
07:55PM EST


 

Airport Tracker/Info


-or-


 

Live Flight TrackerFlight Track Log ✈ XA-RBS ✈ 19-Apr-2013 ✈ KDAL - MMTO / TLC

Flight Track Log - Related Links

Times and Time Zones

All times are in EDT time to prevent confusion due to time zone crossing. See the XA-RBS flight status page for this flight to view local times or setup timezone preferences in your user account.

Time Position Orientation Groundspeed Altitude Reporting Facility
EDT Latitude Longitude Course Direction KTS MPH feet Rate Location/Type
07:50PM 32.9000 -96.9167 191° South 231 266 3,900  Level Dallas / Fort Worth TRACON
07:50PM 32.9167 -96.9833 287° West 246 283 7,400 3,180 Climbing Dallas / Fort Worth TRACON
07:53PM 32.7725 -97.0872 211° Southwest 285 328 14,100 2,940 Climbing Fort Worth Center
07:54PM 32.6764 -97.1075 190° South 362 417 17,100 2,880 Climbing Fort Worth Center
07:55PM 32.5553 -97.1300 189° South 402 463 19,900 2,700 Climbing Fort Worth Center
07:56PM 32.4531 -97.1500 189° South 420 483 22,500 1,500 Climbing Fort Worth Center
07:57PM 32.3197 -97.1725 188° South 430 495 23,000 1,500 Climbing Fort Worth Center
07:58PM 32.1986 -97.1950 189° South 436 502 25,600 2,520 Climbing Fort Worth Center
07:59PM 32.0794 -97.2172 189° South 442 509 28,100 2,100 Climbing Fort Worth Center
08:00PM 31.9711 -97.2394 190° South 449 517 29,800 1,920 Climbing Fort Worth Center
08:01PM 31.8458 -97.2642 190° South 449 517 32,000 2,160 Climbing Fort Worth Center
08:03PM 31.6247 -97.3028 188° South 439 505 36,000 1,920 Climbing Houston Center
08:04PM 31.5064 -97.3250 189° South 429 494 37,500 1,500 Climbing Houston Center
08:05PM 31.3894 -97.3467 189° South 422 486 39,100 1,140 Climbing Houston Center
08:06PM 31.2728 -97.3686 189° South 421 484 39,900 420 Climbing Houston Center
08:07PM 31.1336 -97.3942 189° South 431 496 40,000  Climbing Houston Center
08:08PM 31.0144 -97.4094 186° South 434 499 40,000  Level Houston Center
08:09PM 30.8925 -97.4094 180° South 442 509 40,000  Level Houston Center
08:10PM 30.7711 -97.4108 181° South 438 504 40,000  Level Houston Center
08:11PM 30.6511 -97.4117 180° South 431 496 40,000  Level Houston Center
08:12PM 30.5092 -97.4131 180° South 433 498 40,000  Level Houston Center
08:13PM 30.3878 -97.4144 181° South 432 497 40,000  Level Houston Center
08:14PM 30.2658 -97.4164 181° South 432 497 40,000  Level Houston Center
08:15PM 30.1431 -97.4192 181° South 436 502 40,000 -60 Level Houston Center
08:16PM 30.0258 -97.4192 180° South 438 504 39,900 -60 Descending Houston Center
08:17PM 29.9064 -97.4214 181° South 433 498 39,900  Level Houston Center
08:18PM 29.7628 -97.4228 180° South 431 496 39,900  Level Houston Center
08:19PM 29.6433 -97.4239 180° South 431 496 39,900  Level Houston Center
08:20PM 29.5244 -97.4250 180° South 432 497 39,900  Level Houston Center
08:21PM 29.4042 -97.4269 181° South 434 499 39,900  Level Houston Center
08:22PM 29.2839 -97.4294 181° South 435 501 39,900  Level Houston Center
08:23PM 29.1625 -97.4331 181° South 439 505 39,900  Level Houston Center
08:24PM 29.0150 -97.4369 181° South 444 511 39,900  Level Houston Center
08:25PM 28.8939 -97.4406 181° South 440 506 40,000  Climbing Houston Center
08:26PM 28.7719 -97.4453 182° South 440 506 39,900 -60 Descending Houston Center
08:27PM 28.6486 -97.4486 181° South 441 507 39,900  Level Houston Center
08:28PM 28.5258 -97.4525 182° South 442 509 39,900  Level Houston Center
08:29PM 28.4008 -97.4525 180° South 445 512 39,900  Level Houston Center
08:30PM 28.2544 -97.4575 182° South 441 507 39,900  Level Houston Center
08:31PM 28.1319 -97.4614 182° South 439 505 39,900  Level Houston Center
08:32PM 28.0058 -97.4642 181° South 448 516 40,000  Climbing Houston Center
08:33PM 27.8769 -97.4672 181° South 450 518 39,900 -60 Descending Houston Center
08:34PM 27.7525 -97.4703 181° South 447 514 39,900  Level Houston Center
08:36PM 27.6283 -97.4733 181° South 445 512 39,900  Level Houston Center
08:37PM 27.5019 -97.4764 181° South 449 517 39,900  Level Houston Center
08:38PM 27.3764 -97.4811 182° South 450 518 39,900  Level Houston Center
08:39PM 27.2253 -97.4842 181° South 450 518 39,900  Level Houston Center
08:40PM 27.1022 -97.4894 182° South 453 521 40,000  Climbing Houston Center
08:41PM 26.9750 -97.4914 181° South 413 475 40,000  Level Houston Center
08:42PM 26.8422 -97.4939 181° South 434 499 40,000  Level Houston Center
08:43PM 26.7217 -97.4983 182° South 433 498 40,000  Level Houston Center
08:44PM 26.5919 -97.5006 181° South 431 496 40,000  Level Houston Center
08:45PM 26.4708 -97.5053 182° South 433 498 40,000  Level Houston Center
08:46PM 26.3608 -97.5425 197° South 412 474 40,000  Level Houston Center
08:47PM 26.2508 -97.6006 205° Southwest 404 465 40,000  Level Houston Center
08:48PM 26.1500 -97.6544 206° Southwest 417 480 40,000  Level Houston Center
08:49PM 26.0392 -97.7131 205° Southwest 415 478 40,000  Level Houston Center
08:50PM 25.9367 -97.7681 206° Southwest 408 470 40,000  Level Houston Center
08:52PM 25.7640 -97.8175 194° South  Level Estimated
08:59PM 25.0083 -98.0323 194° South  Level Estimated
09:00PM 24.9003 -98.0628 194° South  Level Estimated
09:01PM 24.7923 -98.0932 194° South  Level Estimated
09:02PM 24.6843 -98.1236 194° South  Level Estimated
09:03PM 24.5763 -98.1539 194° South  Level Estimated
09:04PM 24.4683 -98.1841 194° South  Level Estimated
09:05PM 24.3603 -98.2143 194° South  Level Estimated
09:06PM 24.2523 -98.2445 194° South  Level Estimated
09:07PM 24.1443 -98.2746 194° South  Level Estimated
09:08PM 24.0362 -98.3046 194° South  Level Estimated
09:09PM 23.9282 -98.3346 194° South  Level Estimated
09:10PM 23.8202 -98.3646 194° South  Level Estimated
09:11PM 23.7121 -98.3945 194° South  Level Estimated
09:12PM 23.6041 -98.4243 194° South  Level Estimated
09:13PM 23.4960 -98.4541 194° South  Level Estimated
09:14PM 23.3879 -98.4839 194° South  Level Estimated
09:15PM 23.2799 -98.5136 194° South  Level Estimated
09:16PM 23.1718 -98.5433 194° South  Level Estimated
09:17PM 23.0637 -98.5729 194° South  Level Estimated
09:18PM 22.9556 -98.6024 194° South  Level Estimated
09:19PM 22.8475 -98.6319 194° South  Level Estimated
09:20PM 22.7394 -98.6614 194° South  Level Estimated
09:21PM 22.6313 -98.6908 194° South  Level Estimated
09:22PM 22.5232 -98.7202 194° South  Level Estimated
09:23PM 22.4151 -98.7495 194° South  Level Estimated
09:24PM 22.3070 -98.7788 194° South  Level Estimated
09:25PM 22.1989 -98.8080 194° South  Level Estimated
09:26PM 22.0907 -98.8372 194° South  Level Estimated
09:27PM 21.9826 -98.8664 194° South  Level Estimated
09:28PM 21.8745 -98.8955 194° South  Level Estimated
09:29PM 21.7663 -98.9245 194° South  Level Estimated
09:30PM 21.6582 -98.9536 194° South  Level Estimated
09:31PM 21.5500 -98.9825 194° South  Level Estimated
09:32PM 21.4419 -99.0115 194° South  Level Estimated
09:33PM 21.3337 -99.0404 194° South  Level Estimated
09:34PM 21.2255 -99.0692 194° South  Level Estimated
09:35PM 21.1174 -99.0980 194° South  Level Estimated
09:36PM 21.0092 -99.1267 194° South  Level Estimated
09:37PM 20.9010 -99.1555 194° South  Level Estimated
09:38PM 20.7928 -99.1842 194° South  Level Estimated
09:39PM 20.6846 -99.2128 194° South  Level Estimated
09:40PM 20.5764 -99.2414 194° South  Level Estimated
09:41PM 20.4682 -99.2699 194° South  Level Estimated
09:42PM 20.3600 -99.2984 194° South  Level Estimated
09:43PM 20.2518 -99.3269 194° South  Level Estimated
09:44PM 20.1436 -99.3553 194° South  Level Estimated
09:45PM 20.0354 -99.3837 194° South  Level Estimated
09:46PM 19.9272 -99.4121 194° South  Level Estimated
09:47PM 19.8189 -99.4404 194° South  Level Estimated
09:48PM 19.7107 -99.4687 194° South  Level Estimated
09:49PM 19.6024 -99.4969 194° South  Level Estimated
09:50PM 19.4942 -99.5251 194° South  Level Estimated
09:51PM 19.3860 -99.5533 194° South  Level Estimated
09:52PM 19.3371 -99.5660 194° South  Level Estimated
09:53PM 19.3371 -99.5660 43° Northeast  Level Estimated
09:54PM 19.3371 -99.5660 43° Northeast  Level Estimated
09:55PM 19.3371 -99.5660 43° Northeast  Level Estimated
09:56PM 19.3371 -99.5660 43° Northeast  Level Estimated
09:57PM 19.3371 -99.5660 43° Northeast  Level Estimated
09:58PM 19.3371 -99.5660 43° Northeast  Level Estimated
09:59PM 19.3371 -99.5660 43° Northeast  Level Estimated
10:00PM 19.3371 -99.5660 43° Northeast  Level Estimated
10:01PM 19.3371 -99.5660 43° Northeast  Level Estimated
10:02PM 19.3371 -99.5660 43° Northeast  Level Estimated
10:03PM 19.3371 -99.5660 43° Northeast  Level Estimated
10:04PM 19.3371 -99.5660 43° Northeast  Level Estimated
10:05PM 19.3371 -99.5660 43° Northeast  Level Estimated
10:06PM 19.3371 -99.5660 43° Northeast  Level Estimated
10:07PM 19.3371 -99.5660 43° Northeast  Level Estimated
10:08PM 19.3371 -99.5660 43° Northeast  Level Estimated
10:09PM 19.3371 -99.5660 43° Northeast  Level Estimated
10:10PM 19.3371 -99.5660 43° Northeast  Level Estimated
10:11PM 19.3371 -99.5660 43° Northeast  Level Estimated
10:12PM 19.3371 -99.5660 43° Northeast  Level Estimated
10:13PM 19.3371 -99.5660 43° Northeast  Level Estimated
10:14PM 19.3371 -99.5660 43° Northeast  Level Estimated